Time;durP1;ratioP1;P1;durP2;ratioP2;P2;SDS_P1;SDS_P2;PMS_P1;PMS_P2;Temp;Humidity;BMP_temperature;BMP_pressure;BME280_temperature;BME280_humidity;BME280_pressure;Samples;Min_cycle;Max_cycle;Signal;HPM_P1;HPM_P2
2023/04/13 00:00:10;;;;;;;63.50;31.40;;;;;;;;;;109482;1249;22905;-80
2023/04/13 00:02:56;;;;;;;72.80;33.00;;;;;;;;;;107531;1249;23274;-79
2023/04/13 00:05:22;;;;;;;61.40;27.50;;;;;;;;;;107589;1250;22528;-80
2023/04/13 00:07:49;;;;;;;53.40;28.00;;;;;;;;;;107591;1250;24209;-79
2023/04/13 00:10:17;;;;;;;53.70;24.80;;;;;;;;;;107579;1250;22553;-79
2023/04/13 00:12:47;;;;;;;47.10;26.60;;;;;;;;;;107587;1251;22496;-79
2023/04/13 00:15:14;;;;;;;62.80;33.70;;;;;;;;;;107588;1251;22532;-79
2023/04/13 00:17:41;;;;;;;62.30;31.20;;;;;;;;;;107634;1251;22547;-79
2023/04/13 00:20:12;;;;;;;58.20;31.40;;;;;;;;;;107667;1251;23341;-79
2023/04/13 00:22:39;;;;;;;69.20;32.30;;;;;;;;;;107653;1250;23126;-79
2023/04/13 00:25:05;;;;;;;65.50;35.40;;;;;;;;;;108224;1253;22466;-79
2023/04/13 00:27:32;;;;;;;58.00;30.00;;;;;;;;;;108174;1251;23420;-79
2023/04/13 00:29:58;;;;;;;60.40;33.80;;;;;;;;;;108231;1249;25477;-80
2023/04/13 00:32:25;;;;;;;60.30;32.00;;;;;;;;;;107624;1253;22520;-80
2023/04/13 00:34:51;;;;;;;51.30;31.20;;;;;;;;;;107651;1252;24230;-79
2023/04/13 00:37:18;;;;;;;58.40;31.40;;;;;;;;;;107639;1248;22455;-79
2023/04/13 00:39:45;;;;;;;55.10;29.90;;;;;;;;;;107729;1249;25351;-79
2023/04/13 00:42:11;;;;;;;61.20;29.20;;;;;;;;;;107678;1248;25350;-80
2023/04/13 00:44:38;;;;;;;47.40;26.10;;;;;;;;;;107675;1248;22538;-79
2023/04/13 00:47:04;;;;;;;53.20;26.40;;;;;;;;;;107640;1250;22531;-79
2023/04/13 00:49:32;;;;;;;42.30;24.90;;;;;;;;;;107688;1250;22536;-80
2023/04/13 00:51:59;;;;;;;46.40;24.80;;;;;;;;;;107659;1250;22531;-80
2023/04/13 00:54:26;;;;;;;46.30;24.00;;;;;;;;;;110973;1248;22427;-80
2023/04/13 00:56:53;;;;;;;50.30;25.40;;;;;;;;;;110887;1249;22143;-80
2023/04/13 00:59:19;;;;;;;52.20;29.10;;;;;;;;;;110882;1250;22496;-80
2023/04/13 01:01:49;;;;;;;54.90;26.80;;;;;;;;;;107802;1249;22543;-80
2023/04/13 01:04:17;;;;;;;46.90;26.90;;;;;;;;;;107659;1249;22849;-79
2023/04/13 01:06:44;;;;;;;54.30;30.00;;;;;;;;;;107656;1250;22555;-80
2023/04/13 01:09:11;;;;;;;52.00;27.50;;;;;;;;;;107607;1251;22574;-79
2023/04/13 01:11:40;;;;;;;54.10;28.80;;;;;;;;;;107605;1253;22535;-80
2023/04/13 01:14:12;;;;;;;47.00;26.50;;;;;;;;;;107601;1248;26362;-81
2023/04/13 01:16:40;;;;;;;45.60;24.80;;;;;;;;;;107758;1252;25265;-79
2023/04/13 01:19:08;;;;;;;49.40;30.10;;;;;;;;;;107625;1251;24250;-79
2023/04/13 01:21:35;;;;;;;51.70;26.50;;;;;;;;;;107566;1250;24208;-79
2023/04/13 01:24:19;;;;;;;57.80;28.90;;;;;;;;;;107650;1250;24947;-80
2023/04/13 01:27:00;;;;;;;48.10;26.90;;;;;;;;;;107676;1251;22537;-80
2023/04/13 01:29:26;;;;;;;37.30;23.30;;;;;;;;;;108149;1251;22539;-79
2023/04/13 01:31:53;;;;;;;43.50;21.40;;;;;;;;;;108265;1251;24362;-79
2023/04/13 01:34:20;;;;;;;39.70;23.40;;;;;;;;;;108191;1251;22555;-80
2023/04/13 01:36:47;;;;;;;39.50;21.50;;;;;;;;;;108126;1248;24426;-79
2023/04/13 01:39:19;;;;;;;43.90;27.50;;;;;;;;;;107706;1251;26376;-79
2023/04/13 01:41:46;;;;;;;40.80;23.60;;;;;;;;;;107673;1248;23268;-80
2023/04/13 01:44:12;;;;;;;44.70;24.80;;;;;;;;;;107745;1250;22562;-79
2023/04/13 01:46:40;;;;;;;39.30;24.10;;;;;;;;;;107722;1248;22576;-79
2023/04/13 01:49:07;;;;;;;40.00;23.60;;;;;;;;;;107661;1248;25366;-78
2023/04/13 01:51:34;;;;;;;36.10;20.80;;;;;;;;;;107570;1249;25380;-79
2023/04/13 01:54:01;;;;;;;38.00;22.00;;;;;;;;;;107625;1250;24084;-79
2023/04/13 01:56:28;;;;;;;39.50;23.60;;;;;;;;;;107584;1249;24215;-80
2023/04/13 01:58:58;;;;;;;43.30;24.10;;;;;;;;;;108385;1249;153019;-80
2023/04/13 02:01:25;;;;;;;38.00;21.50;;;;;;;;;;110920;1247;22888;-80
2023/04/13 02:03:51;;;;;;;41.90;21.90;;;;;;;;;;111009;1247;22556;-79
2023/04/13 02:06:18;;;;;;;35.60;19.90;;;;;;;;;;111074;1247;22536;-80
2023/04/13 02:08:44;;;;;;;41.70;22.20;;;;;;;;;;111029;1247;22322;-80
2023/04/13 02:11:14;;;;;;;55.20;29.30;;;;;;;;;;110444;1248;22576;-79
2023/04/13 02:13:41;;;;;;;45.00;24.90;;;;;;;;;;108241;1250;23319;-80
2023/04/13 02:16:10;;;;;;;48.90;27.30;;;;;;;;;;110171;1249;22580;-80
2023/04/13 02:18:37;;;;;;;43.60;23.50;;;;;;;;;;107707;1250;22658;-79
2023/04/13 02:21:08;;;;;;;43.00;25.70;;;;;;;;;;110159;1249;22564;-80
2023/04/13 02:23:35;;;;;;;42.90;24.70;;;;;;;;;;107474;1250;25378;-79
2023/04/13 02:26:01;;;;;;;40.50;21.50;;;;;;;;;;107625;1250;22575;-81
2023/04/13 02:28:28;;;;;;;41.40;21.60;;;;;;;;;;107446;1250;24344;-79
2023/04/13 02:30:55;;;;;;;43.70;22.90;;;;;;;;;;107506;1252;25221;-79
2023/04/13 02:33:22;;;;;;;40.40;24.10;;;;;;;;;;107504;1251;22527;-80
2023/04/13 02:35:48;;;;;;;42.20;23.10;;;;;;;;;;107512;1250;22533;-80
2023/04/13 02:38:15;;;;;;;40.30;21.20;;;;;;;;;;107511;1249;25392;-79
2023/04/13 02:40:42;;;;;;;40.80;22.40;;;;;;;;;;107546;1250;23753;-79
2023/04/13 02:43:09;;;;;;;42.30;22.90;;;;;;;;;;107804;1250;25262;-79
2023/04/13 02:45:37;;;;;;;43.40;24.70;;;;;;;;;;107800;1249;22521;-79
2023/04/13 02:48:04;;;;;;;42.90;22.40;;;;;;;;;;107798;1249;25314;-79
2023/04/13 02:50:30;;;;;;;51.80;25.30;;;;;;;;;;107830;1252;22544;-80
2023/04/13 02:52:56;;;;;;;41.70;24.40;;;;;;;;;;107520;1249;24407;-79
2023/04/13 02:55:22;;;;;;;48.30;29.10;;;;;;;;;;107495;1251;22614;-80
2023/04/13 02:57:49;;;;;;;46.10;28.60;;;;;;;;;;107633;1251;22529;-80
2023/04/13 03:00:15;;;;;;;40.70;23.80;;;;;;;;;;107593;1249;22528;-79
2023/04/13 03:02:43;;;;;;;38.20;21.20;;;;;;;;;;107781;1247;24559;-79
2023/04/13 03:05:09;;;;;;;37.00;22.70;;;;;;;;;;107790;1250;22511;-79
2023/04/13 03:07:36;;;;;;;33.70;21.10;;;;;;;;;;107744;1247;23077;-79
2023/04/13 03:10:05;;;;;;;40.50;22.40;;;;;;;;;;107782;1247;24269;-79
2023/04/13 03:12:31;;;;;;;40.40;22.40;;;;;;;;;;107808;1247;24351;-79
2023/04/13 03:15:03;;;;;;;36.70;22.80;;;;;;;;;;107817;1248;23612;-79
2023/04/13 03:17:30;;;;;;;32.00;19.70;;;;;;;;;;107821;1247;24260;-79
2023/04/13 03:19:56;;;;;;;36.90;19.90;;;;;;;;;;107731;1248;23773;-80
2023/04/13 03:22:23;;;;;;;37.00;20.00;;;;;;;;;;107580;1254;23872;-79
2023/04/13 03:24:49;;;;;;;37.70;20.70;;;;;;;;;;107755;1248;22528;-79
2023/04/13 03:27:16;;;;;;;35.40;21.70;;;;;;;;;;107802;1247;24082;-79
2023/04/13 03:29:42;;;;;;;36.60;22.50;;;;;;;;;;107676;1250;22606;-79
2023/04/13 03:32:08;;;;;;;47.60;26.40;;;;;;;;;;107707;1250;22521;-81
2023/04/13 03:34:35;;;;;;;48.20;27.80;;;;;;;;;;107692;1252;25339;-79
2023/04/13 03:37:01;;;;;;;40.50;23.30;;;;;;;;;;107658;1250;25435;-80
2023/04/13 03:39:28;;;;;;;36.40;21.90;;;;;;;;;;107702;1250;24366;-80
2023/04/13 03:41:54;;;;;;;39.50;21.40;;;;;;;;;;107708;1250;22578;-79
2023/04/13 03:44:21;;;;;;;38.30;20.60;;;;;;;;;;108216;1250;22622;-80
2023/04/13 03:46:47;;;;;;;45.50;23.10;;;;;;;;;;108544;1252;23801;-79
2023/04/13 03:49:14;;;;;;;43.60;22.70;;;;;;;;;;108224;1250;22543;-80
2023/04/13 03:51:40;;;;;;;43.70;21.60;;;;;;;;;;108256;1250;22600;-80
2023/04/13 03:54:06;;;;;;;40.10;22.30;;;;;;;;;;108198;1252;22579;-80
2023/04/13 03:56:33;;;;;;;36.30;22.10;;;;;;;;;;108133;1252;22572;-80
2023/04/13 03:58:59;;;;;;;39.20;23.80;;;;;;;;;;108062;1250;26494;-80
2023/04/13 04:01:26;;;;;;;56.10;30.20;;;;;;;;;;108169;1248;22525;-80
2023/04/13 04:03:55;;;;;;;42.80;24.70;;;;;;;;;;108177;1249;22562;-80
2023/04/13 04:06:22;;;;;;;43.70;22.80;;;;;;;;;;108119;1249;24110;-80
2023/04/13 04:08:49;;;;;;;38.20;20.50;;;;;;;;;;107907;1249;22522;-80
2023/04/13 04:11:16;;;;;;;44.40;23.30;;;;;;;;;;107876;1249;22528;-80
2023/04/13 04:13:42;;;;;;;41.90;25.70;;;;;;;;;;107843;1249;24252;-80
2023/04/13 04:16:10;;;;;;;50.30;25.10;;;;;;;;;;107856;1249;22612;-80
2023/04/13 04:18:36;;;;;;;47.40;26.10;;;;;;;;;;107808;1249;22859;-80
2023/04/13 04:21:03;;;;;;;38.90;21.70;;;;;;;;;;107802;1252;22540;-79
2023/04/13 04:23:29;;;;;;;36.80;20.40;;;;;;;;;;107793;1249;23124;-80
2023/04/13 04:25:58;;;;;;;32.80;20.60;;;;;;;;;;107752;1252;23075;-80
2023/04/13 04:28:24;;;;;;;40.20;20.20;;;;;;;;;;107903;1248;25466;-80
2023/04/13 04:30:54;;;;;;;37.20;21.80;;;;;;;;;;107810;1250;25351;-80
2023/04/13 04:33:21;;;;;;;32.90;19.50;;;;;;;;;;107779;1250;22611;-80
2023/04/13 04:35:51;;;;;;;35.40;19.10;;;;;;;;;;107859;1252;25303;-81
2023/04/13 04:38:17;;;;;;;29.10;19.70;;;;;;;;;;107774;1248;22521;-80
2023/04/13 04:40:44;;;;;;;34.80;20.80;;;;;;;;;;107796;1248;22537;-80
2023/04/13 04:43:12;;;;;;;43.80;25.00;;;;;;;;;;107829;1248;24225;-80
2023/04/13 04:45:42;;;;;;;58.10;25.90;;;;;;;;;;107849;1248;24219;-80
2023/04/13 04:48:10;;;;;;;46.00;25.50;;;;;;;;;;107754;1250;24372;-80
2023/04/13 04:50:37;;;;;;;49.50;29.50;;;;;;;;;;107828;1248;25268;-80
2023/04/13 04:53:03;;;;;;;53.90;27.30;;;;;;;;;;107779;1249;22841;-80
2023/04/13 04:55:29;;;;;;;51.70;25.50;;;;;;;;;;107792;1253;22527;-80
2023/04/13 04:57:56;;;;;;;44.00;24.30;;;;;;;;;;107823;1248;24317;-80
2023/04/13 05:00:25;;;;;;;41.60;22.50;;;;;;;;;;107738;1248;22533;-80
2023/04/13 05:02:51;;;;;;;52.10;26.00;;;;;;;;;;107704;1251;23263;-80
2023/04/13 05:05:18;;;;;;;44.00;23.40;;;;;;;;;;107834;1248;24202;-80
2023/04/13 05:07:45;;;;;;;44.90;24.50;;;;;;;;;;107763;1249;25309;-80
2023/04/13 05:10:11;;;;;;;37.90;22.10;;;;;;;;;;107803;1250;25473;-80
2023/04/13 05:12:37;;;;;;;43.30;25.70;;;;;;;;;;108086;1250;22589;-79
2023/04/13 05:15:04;;;;;;;40.80;24.30;;;;;;;;;;108271;1250;22526;-80
2023/04/13 05:17:30;;;;;;;50.90;27.10;;;;;;;;;;108172;1248;22546;-80
2023/04/13 05:19:57;;;;;;;43.00;25.00;;;;;;;;;;108266;1248;24170;-80
2023/04/13 05:22:23;;;;;;;53.20;27.60;;;;;;;;;;108235;1251;24336;-80
2023/04/13 05:24:49;;;;;;;43.30;26.50;;;;;;;;;;108145;1250;23215;-80
2023/04/13 05:27:16;;;;;;;50.90;24.90;;;;;;;;;;108162;1249;26476;-80
2023/04/13 05:29:42;;;;;;;43.80;25.60;;;;;;;;;;108112;1252;23503;-81
2023/04/13 05:32:09;;;;;;;42.50;25.10;;;;;;;;;;108184;1250;24402;-81
2023/04/13 05:34:37;;;;;;;45.20;26.60;;;;;;;;;;108170;1250;22971;-80
2023/04/13 05:37:04;;;;;;;39.30;24.80;;;;;;;;;;108196;1250;25472;-81
2023/04/13 05:39:30;;;;;;;49.40;24.10;;;;;;;;;;108168;1250;22615;-80
2023/04/13 05:41:56;;;;;;;37.80;23.50;;;;;;;;;;108174;1249;22782;-80
2023/04/13 05:44:23;;;;;;;40.50;24.20;;;;;;;;;;108312;1249;24362;-80
2023/04/13 05:46:49;;;;;;;44.00;24.50;;;;;;;;;;108223;1249;22518;-80
2023/04/13 05:49:16;;;;;;;42.80;25.30;;;;;;;;;;108217;1249;23229;-80
2023/04/13 05:51:43;;;;;;;51.50;24.40;;;;;;;;;;108543;1248;22639;-81
2023/04/13 05:54:10;;;;;;;43.60;25.30;;;;;;;;;;108656;1249;23248;-81
2023/04/13 05:56:36;;;;;;;48.10;26.50;;;;;;;;;;108492;1249;25345;-80
2023/04/13 05:59:03;;;;;;;47.80;27.20;;;;;;;;;;108891;1249;22761;-81
2023/04/13 06:01:30;;;;;;;46.90;24.70;;;;;;;;;;108951;1249;25316;-80
2023/04/13 06:03:56;;;;;;;32.50;18.50;;;;;;;;;;108818;1249;25344;-80
2023/04/13 06:06:23;;;;;;;36.50;20.00;;;;;;;;;;108561;1250;22523;-80
2023/04/13 06:08:51;;;;;;;48.20;24.60;;;;;;;;;;108783;1249;25317;-80
2023/04/13 06:11:19;;;;;;;47.70;25.20;;;;;;;;;;108630;1249;22640;-80
2023/04/13 06:13:46;;;;;;;39.50;23.30;;;;;;;;;;108754;1252;25264;-81
2023/04/13 06:16:12;;;;;;;42.40;24.70;;;;;;;;;;108505;1249;22518;-80
2023/04/13 06:18:39;;;;;;;36.70;22.00;;;;;;;;;;108372;1250;23278;-81
2023/04/13 06:21:05;;;;;;;43.20;22.80;;;;;;;;;;108393;1249;22533;-80
2023/04/13 06:23:32;;;;;;;36.90;22.30;;;;;;;;;;108671;1249;23425;-81
2023/04/13 06:25:58;;;;;;;34.00;20.90;;;;;;;;;;108771;1250;24182;-81
2023/04/13 06:28:27;;;;;;;31.80;20.60;;;;;;;;;;108733;1250;24236;-81
2023/04/13 06:30:55;;;;;;;29.60;18.40;;;;;;;;;;108544;1249;22534;-80
2023/04/13 06:33:22;;;;;;;41.00;21.10;;;;;;;;;;108631;1248;25321;-80
2023/04/13 06:35:50;;;;;;;38.00;26.20;;;;;;;;;;108579;1248;22624;-80
2023/04/13 06:38:17;;;;;;;28.00;20.00;;;;;;;;;;109085;1247;25293;-82
2023/04/13 06:40:44;;;;;;;30.70;19.20;;;;;;;;;;108868;1248;22576;-81
2023/04/13 06:43:10;;;;;;;30.50;18.20;;;;;;;;;;109145;1250;22558;-81
2023/04/13 06:45:37;;;;;;;26.60;15.40;;;;;;;;;;109167;1249;24213;-78
2023/04/13 06:48:04;;;;;;;30.20;15.80;;;;;;;;;;108142;1249;22553;-78
2023/04/13 06:50:31;;;;;;;22.30;14.30;;;;;;;;;;108238;1249;22621;-79
2023/04/13 06:52:57;;;;;;;21.90;12.70;;;;;;;;;;108169;1249;22545;-79
2023/04/13 06:55:24;;;;;;;24.30;12.70;;;;;;;;;;107933;1249;22548;-77
2023/04/13 06:57:50;;;;;;;23.00;14.60;;;;;;;;;;108038;1248;25495;-78
2023/04/13 07:00:17;;;;;;;28.30;15.50;;;;;;;;;;108336;1249;22549;-77
2023/04/13 07:02:43;;;;;;;22.20;12.60;;;;;;;;;;108041;1250;22815;-78
2023/04/13 07:05:10;;;;;;;22.40;13.40;;;;;;;;;;108061;1249;24376;-77
2023/04/13 07:07:37;;;;;;;31.00;14.40;;;;;;;;;;107921;1249;23395;-78
2023/04/13 07:10:04;;;;;;;23.80;12.90;;;;;;;;;;107828;1248;23234;-79
2023/04/13 07:12:32;;;;;;;25.70;14.50;;;;;;;;;;108704;1250;27453;-82
2023/04/13 07:14:59;;;;;;;19.60;14.10;;;;;;;;;;109180;1247;22528;-79
2023/04/13 07:17:26;;;;;;;23.30;13.20;;;;;;;;;;108204;1249;25384;-80
2023/04/13 07:19:52;;;;;;;25.80;13.10;;;;;;;;;;108486;1250;22535;-78
2023/04/13 07:22:18;;;;;;;24.50;14.20;;;;;;;;;;107874;1248;22699;-81
2023/04/13 07:24:45;;;;;;;20.90;13.20;;;;;;;;;;108711;1248;22528;-78
2023/04/13 07:27:11;;;;;;;22.20;11.60;;;;;;;;;;108162;1250;23341;-79
2023/04/13 07:29:37;;;;;;;18.10;12.60;;;;;;;;;;108007;1251;22648;-79
2023/04/13 07:32:05;;;;;;;19.70;11.70;;;;;;;;;;107932;1247;22532;-80
2023/04/13 07:34:31;;;;;;;21.20;11.30;;;;;;;;;;108689;1250;25301;-79
2023/04/13 07:36:57;;;;;;;17.30;11.00;;;;;;;;;;108019;1250;25367;-78
2023/04/13 07:39:24;;;;;;;17.90;11.70;;;;;;;;;;107905;1250;22547;-79
2023/04/13 07:41:50;;;;;;;22.70;11.50;;;;;;;;;;107827;1252;22531;-79
2023/04/13 07:44:16;;;;;;;22.20;14.10;;;;;;;;;;107920;1249;22697;-78
2023/04/13 07:46:43;;;;;;;19.20;13.10;;;;;;;;;;107761;1249;23745;-80
2023/04/13 07:49:10;;;;;;;17.20;11.30;;;;;;;;;;107862;1250;22530;-78
2023/04/13 07:51:36;;;;;;;24.10;10.50;;;;;;;;;;107915;1252;25497;-79
2023/04/13 07:54:03;;;;;;;20.50;11.80;;;;;;;;;;107907;1249;22642;-79
2023/04/13 07:56:32;;;;;;;18.10;12.00;;;;;;;;;;107741;1249;22527;-79
2023/04/13 07:58:58;;;;;;;19.50;12.60;;;;;;;;;;107773;1248;24226;-79
2023/04/13 08:01:25;;;;;;;17.60;10.90;;;;;;;;;;107783;1249;24337;-79
2023/04/13 08:03:51;;;;;;;17.60;11.50;;;;;;;;;;107972;1248;22557;-80
2023/04/13 08:06:19;;;;;;;14.50;10.50;;;;;;;;;;107738;1250;24242;-79
2023/04/13 08:08:46;;;;;;;18.00;10.60;;;;;;;;;;107698;1249;22597;-78
2023/04/13 08:11:12;;;;;;;13.90;8.40;;;;;;;;;;107750;1250;24414;-78
2023/04/13 08:13:39;;;;;;;14.30;8.50;;;;;;;;;;107804;1249;22626;-78
2023/04/13 08:16:07;;;;;;;24.00;11.60;;;;;;;;;;107858;1250;22522;-78
2023/04/13 08:18:33;;;;;;;21.00;9.00;;;;;;;;;;107804;1250;25372;-79
2023/04/13 08:21:00;;;;;;;13.90;9.70;;;;;;;;;;107687;1250;22527;-78
2023/04/13 08:23:26;;;;;;;12.90;8.30;;;;;;;;;;107718;1248;22510;-79
2023/04/13 08:25:53;;;;;;;14.00;8.10;;;;;;;;;;107731;1248;22548;-79
2023/04/13 08:28:19;;;;;;;9.80;7.40;;;;;;;;;;107734;1252;26480;-80
2023/04/13 08:30:46;;;;;;;13.60;8.70;;;;;;;;;;107685;1249;25384;-80
2023/04/13 08:33:12;;;;;;;13.80;8.10;;;;;;;;;;107819;1248;23309;-80
2023/04/13 08:35:38;;;;;;;14.00;6.10;;;;;;;;;;107704;1250;26175;-79
2023/04/13 08:38:08;;;;;;;8.50;5.30;;;;;;;;;;107729;1250;25376;-80
2023/04/13 08:40:35;;;;;;;11.50;5.90;;;;;;;;;;107743;1249;22523;-80
2023/04/13 08:43:02;;;;;;;14.60;6.50;;;;;;;;;;107867;1250;22637;-79
2023/04/13 08:45:29;;;;;;;8.70;5.20;;;;;;;;;;107748;1249;24206;-80
2023/04/13 08:47:56;;;;;;;7.30;5.20;;;;;;;;;;107649;1250;22534;-78
2023/04/13 08:50:26;;;;;;;8.50;5.10;;;;;;;;;;107718;1252;22551;-80
2023/04/13 08:52:53;;;;;;;13.70;5.80;;;;;;;;;;107790;1253;26372;-80
2023/04/13 08:55:19;;;;;;;6.00;4.30;;;;;;;;;;107788;1249;25285;-78
2023/04/13 08:57:46;;;;;;;6.40;4.70;;;;;;;;;;107662;1250;23224;-78
2023/04/13 09:00:16;;;;;;;8.30;4.60;;;;;;;;;;107833;1248;22547;-78
2023/04/13 09:02:47;;;;;;;9.60;5.40;;;;;;;;;;107848;1251;25464;-79
2023/04/13 09:05:16;;;;;;;6.70;4.60;;;;;;;;;;107828;1250;25696;-79
2023/04/13 09:07:50;;;;;;;7.40;5.00;;;;;;;;;;107740;1250;25311;-79
2023/04/13 09:10:16;;;;;;;10.20;4.50;;;;;;;;;;107737;1249;22517;-78
2023/04/13 09:12:43;;;;;;;10.10;5.90;;;;;;;;;;107963;1248;22536;-80
2023/04/13 09:15:09;;;;;;;11.20;6.70;;;;;;;;;;107794;1249;22861;-80
2023/04/13 09:17:36;;;;;;;5.60;4.20;;;;;;;;;;107790;1252;25484;-78
2023/04/13 09:20:21;;;;;;;7.80;4.40;;;;;;;;;;107703;1249;25419;-79
2023/04/13 09:22:48;;;;;;;8.90;4.50;;;;;;;;;;107773;1249;24079;-79
2023/04/13 09:25:21;;;;;;;16.40;11.60;;;;;;;;;;107773;1250;22540;-79
2023/04/13 09:27:47;;;;;;;9.90;4.20;;;;;;;;;;107877;1249;22538;-78
2023/04/13 09:30:17;;;;;;;9.60;3.50;;;;;;;;;;107768;1253;25353;-79
2023/04/13 09:32:43;;;;;;;5.20;3.50;;;;;;;;;;107510;1250;22530;-78
2023/04/13 09:35:10;;;;;;;8.70;3.50;;;;;;;;;;107745;1252;22576;-78
2023/04/13 09:37:40;;;;;;;8.10;4.10;;;;;;;;;;109032;1250;22667;-80
2023/04/13 09:40:09;;;;;;;7.50;2.90;;;;;;;;;;107684;1250;25397;-78
2023/04/13 09:42:36;;;;;;;6.90;3.90;;;;;;;;;;107745;1252;26028;-79
2023/04/13 09:45:03;;;;;;;5.80;2.90;;;;;;;;;;107970;1248;25481;-79
2023/04/13 09:47:37;;;;;;;4.90;3.20;;;;;;;;;;108027;1248;23205;-78
2023/04/13 09:50:04;;;;;;;11.80;3.70;;;;;;;;;;110821;1248;22413;-79
2023/04/13 09:52:31;;;;;;;7.80;3.90;;;;;;;;;;110856;1248;22571;-79
2023/04/13 09:54:57;;;;;;;7.50;3.40;;;;;;;;;;110835;1249;23142;-80
2023/04/13 09:57:27;;;;;;;7.60;3.60;;;;;;;;;;110867;1248;22261;-78
2023/04/13 09:59:54;;;;;;;20.80;3.20;;;;;;;;;;110822;1249;22193;-78
2023/04/13 10:02:20;;;;;;;7.40;3.00;;;;;;;;;;110878;1249;22458;-79
2023/04/13 10:04:47;;;;;;;5.80;3.40;;;;;;;;;;110819;1248;22510;-79
2023/04/13 10:07:13;;;;;;;5.30;3.00;;;;;;;;;;108580;1250;25476;-80
2023/04/13 10:09:43;;;;;;;5.60;3.10;;;;;;;;;;107665;1250;22523;-79
2023/04/13 10:12:10;;;;;;;6.60;2.80;;;;;;;;;;107754;1250;22627;-80
2023/04/13 10:14:38;;;;;;;8.10;3.20;;;;;;;;;;109419;1252;22532;-79
2023/04/13 10:17:23;;;;;;;7.00;3.20;;;;;;;;;;107715;1250;23205;-79
2023/04/13 10:19:50;;;;;;;5.40;2.60;;;;;;;;;;107706;1252;25278;-79
2023/04/13 10:22:16;;;;;;;5.00;2.70;;;;;;;;;;107707;1249;22543;-78
2023/04/13 10:24:43;;;;;;;7.50;3.80;;;;;;;;;;107741;1248;24219;-78
2023/04/13 10:27:10;;;;;;;4.00;2.70;;;;;;;;;;107729;1250;24165;-78
2023/04/13 10:29:36;;;;;;;5.70;2.80;;;;;;;;;;107731;1249;22873;-78
2023/04/13 10:32:03;;;;;;;4.40;2.80;;;;;;;;;;107827;1250;23274;-79
2023/04/13 10:34:30;;;;;;;5.90;2.70;;;;;;;;;;107807;1250;25357;-80
2023/04/13 10:37:05;;;;;;;6.50;2.40;;;;;;;;;;107822;1249;22589;-79
2023/04/13 10:39:34;;;;;;;4.60;2.80;;;;;;;;;;107727;1250;22564;-78
2023/04/13 10:42:01;;;;;;;5.90;2.50;;;;;;;;;;107704;1250;22831;-79
2023/04/13 10:44:39;;;;;;;4.60;2.60;;;;;;;;;;107775;1250;24361;-80
2023/04/13 10:47:07;;;;;;;7.20;2.50;;;;;;;;;;108305;1250;23259;-79
2023/04/13 10:49:33;;;;;;;7.70;3.00;;;;;;;;;;107666;1250;23286;-80
2023/04/13 10:51:59;;;;;;;4.90;3.10;;;;;;;;;;107711;1252;22536;-80
2023/04/13 10:54:26;;;;;;;6.10;2.80;;;;;;;;;;107709;1250;22974;-79
2023/04/13 10:56:56;;;;;;;6.80;3.00;;;;;;;;;;108157;1249;24337;-79
2023/04/13 10:59:22;;;;;;;4.80;2.60;;;;;;;;;;107753;1248;24196;-78
2023/04/13 11:01:49;;;;;;;5.00;2.40;;;;;;;;;;107842;1250;22817;-79
2023/04/13 11:04:15;;;;;;;5.30;3.10;;;;;;;;;;107715;1251;22525;-79
2023/04/13 11:06:41;;;;;;;5.60;3.10;;;;;;;;;;107659;1250;25339;-79
2023/04/13 11:09:10;;;;;;;6.50;2.90;;;;;;;;;;107667;1252;22516;-78
2023/04/13 11:11:38;;;;;;;7.20;2.90;;;;;;;;;;107642;1249;22523;-78
2023/04/13 11:14:05;;;;;;;4.50;2.50;;;;;;;;;;107918;1250;25374;-79
2023/04/13 11:16:31;;;;;;;7.40;3.80;;;;;;;;;;107894;1250;23020;-80
2023/04/13 11:19:01;;;;;;;5.60;2.80;;;;;;;;;;107712;1252;24963;-80
2023/04/13 11:21:28;;;;;;;5.30;3.00;;;;;;;;;;107746;1252;25220;-79
2023/04/13 11:23:55;;;;;;;8.20;3.00;;;;;;;;;;107888;1250;22538;-81
2023/04/13 11:26:32;;;;;;;6.80;3.60;;;;;;;;;;107661;1250;24968;-81
2023/04/13 11:29:01;;;;;;;8.10;3.20;;;;;;;;;;108665;1248;24221;-80
2023/04/13 11:31:37;;;;;;;6.50;2.50;;;;;;;;;;107674;1250;22554;-79
2023/04/13 11:34:05;;;;;;;4.40;2.50;;;;;;;;;;107998;1251;22525;-79
2023/04/13 11:36:32;;;;;;;6.90;2.80;;;;;;;;;;107961;1250;26292;-79
2023/04/13 11:39:00;;;;;;;5.60;2.50;;;;;;;;;;107622;1250;25162;-79
2023/04/13 11:41:27;;;;;;;4.10;2.60;;;;;;;;;;107635;1249;22518;-79
2023/04/13 11:43:54;;;;;;;6.20;2.50;;;;;;;;;;107632;1249;22531;-80
2023/04/13 11:46:23;;;;;;;4.20;2.70;;;;;;;;;;107607;1250;22585;-80
2023/04/13 11:48:51;;;;;;;3.60;2.30;;;;;;;;;;108055;1250;22937;-79
2023/04/13 11:51:20;;;;;;;4.30;2.40;;;;;;;;;;107575;1253;22534;-80
2023/04/13 11:53:48;;;;;;;9.00;4.70;;;;;;;;;;107739;1250;23171;-79
2023/04/13 11:56:14;;;;;;;13.90;8.10;;;;;;;;;;107633;1251;22559;-79
2023/04/13 11:58:41;;;;;;;8.80;4.90;;;;;;;;;;107603;1250;22543;-80
2023/04/13 12:01:08;;;;;;;8.80;3.70;;;;;;;;;;107616;1249;25359;-79
2023/04/13 12:03:35;;;;;;;6.80;3.70;;;;;;;;;;107723;1250;25351;-79
2023/04/13 12:06:01;;;;;;;8.90;5.00;;;;;;;;;;108054;1250;23923;-79
2023/04/13 12:08:28;;;;;;;4.10;2.70;;;;;;;;;;107973;1248;22535;-80
2023/04/13 12:11:02;;;;;;;7.70;3.10;;;;;;;;;;107885;1251;22525;-79
2023/04/13 12:13:39;;;;;;;3.90;2.60;;;;;;;;;;107972;1251;25491;-80
2023/04/13 12:16:05;;;;;;;9.40;3.90;;;;;;;;;;108022;1249;22532;-79
2023/04/13 12:18:38;;;;;;;4.50;2.70;;;;;;;;;;107833;1249;22640;-80
2023/04/13 12:21:05;;;;;;;7.90;3.00;;;;;;;;;;107591;1250;22645;-80
2023/04/13 12:23:31;;;;;;;5.30;2.60;;;;;;;;;;107759;1250;22520;-79
2023/04/13 12:26:04;;;;;;;5.70;3.10;;;;;;;;;;108201;1252;22534;-81
2023/04/13 12:28:30;;;;;;;5.20;3.90;;;;;;;;;;108394;1252;22562;-80
2023/04/13 12:31:07;;;;;;;8.40;3.30;;;;;;;;;;108195;1250;22533;-79
2023/04/13 12:33:34;;;;;;;8.70;3.50;;;;;;;;;;108377;1250;22521;-80
2023/04/13 12:36:01;;;;;;;12.60;6.10;;;;;;;;;;108401;1250;22542;-80
2023/04/13 12:38:27;;;;;;;4.90;2.90;;;;;;;;;;107652;1248;22991;-80
2023/04/13 12:40:57;;;;;;;5.10;2.70;;;;;;;;;;107729;1250;25430;-79
2023/04/13 12:43:23;;;;;;;4.20;3.00;;;;;;;;;;107720;1250;23010;-79
2023/04/13 12:45:50;;;;;;;20.50;10.90;;;;;;;;;;107742;1248;22583;-79
2023/04/13 12:48:16;;;;;;;10.00;5.60;;;;;;;;;;108351;1251;24108;-80
2023/04/13 12:50:43;;;;;;;11.90;8.40;;;;;;;;;;107725;1250;22536;-80
2023/04/13 12:53:10;;;;;;;12.20;7.30;;;;;;;;;;107639;1250;23256;-79
2023/04/13 12:55:37;;;;;;;9.70;6.70;;;;;;;;;;108107;1251;23296;-80
2023/04/13 12:58:04;;;;;;;12.20;6.50;;;;;;;;;;107618;1250;22531;-79
2023/04/13 13:00:30;;;;;;;12.40;3.80;;;;;;;;;;107594;1254;25225;-79
2023/04/13 13:02:57;;;;;;;6.60;3.60;;;;;;;;;;107722;1249;22673;-79
2023/04/13 13:05:23;;;;;;;7.00;3.20;;;;;;;;;;107726;1250;23544;-79
2023/04/13 13:07:50;;;;;;;6.10;2.80;;;;;;;;;;107641;1250;22519;-79
2023/04/13 13:10:16;;;;;;;9.30;3.80;;;;;;;;;;107602;1250;22589;-79
2023/04/13 13:12:43;;;;;;;6.20;3.40;;;;;;;;;;107782;1250;22603;-78
2023/04/13 13:15:10;;;;;;;13.70;4.10;;;;;;;;;;107721;1250;25807;-78
2023/04/13 13:17:40;;;;;;;8.30;4.70;;;;;;;;;;107727;1250;22670;-80
2023/04/13 13:20:07;;;;;;;10.90;8.60;;;;;;;;;;107831;1250;24204;-78
2023/04/13 13:22:34;;;;;;;10.70;9.60;;;;;;;;;;107961;1250;25369;-79
2023/04/13 13:25:01;;;;;;;13.30;11.70;;;;;;;;;;107605;1253;22536;-78
2023/04/13 13:27:27;;;;;;;13.10;10.40;;;;;;;;;;107626;1253;22531;-78
2023/04/13 13:29:56;;;;;;;21.40;13.50;;;;;;;;;;107553;1250;22539;-78
2023/04/13 13:32:23;;;;;;;12.90;8.90;;;;;;;;;;107592;1250;25500;-78
2023/04/13 13:34:50;;;;;;;13.20;7.20;;;;;;;;;;107662;1249;22536;-78
2023/04/13 13:37:16;;;;;;;9.70;5.50;;;;;;;;;;107575;1250;26471;-78
2023/04/13 13:39:43;;;;;;;11.30;6.50;;;;;;;;;;107564;1253;22527;-79
2023/04/13 13:42:09;;;;;;;7.70;4.70;;;;;;;;;;107833;1249;24255;-80
2023/04/13 13:44:35;;;;;;;11.10;5.80;;;;;;;;;;109418;1250;23033;-79
2023/04/13 13:47:02;;;;;;;15.60;7.20;;;;;;;;;;107710;1250;22531;-80
2023/04/13 13:49:28;;;;;;;9.50;5.30;;;;;;;;;;107730;1250;23204;-80
2023/04/13 13:51:55;;;;;;;14.00;7.30;;;;;;;;;;107781;1248;22521;-80
2023/04/13 13:54:22;;;;;;;11.20;6.10;;;;;;;;;;107927;1252;22522;-79
2023/04/13 13:56:48;;;;;;;16.00;9.20;;;;;;;;;;107768;1250;24191;-79
2023/04/13 13:59:15;;;;;;;10.60;6.50;;;;;;;;;;107727;1249;145138;-80
2023/04/13 14:01:41;;;;;;;8.20;5.10;;;;;;;;;;107700;1250;25350;-80
2023/04/13 14:04:08;;;;;;;11.80;5.80;;;;;;;;;;107735;1250;22530;-79
2023/04/13 14:06:34;;;;;;;18.70;8.80;;;;;;;;;;107878;1249;22563;-79
2023/04/13 14:09:00;;;;;;;11.90;6.10;;;;;;;;;;107764;1250;25383;-79
2023/04/13 14:11:27;;;;;;;13.20;5.40;;;;;;;;;;107760;1249;25401;-80
2023/04/13 14:13:53;;;;;;;9.70;4.60;;;;;;;;;;107912;1249;22524;-78